Terminal Aerodrome Forecast
Issued by NWS

Home | Current Version | Previous Version | Text Only | Print | Product List | Glossary On
Versions: 1 2 3 4 5 6 7 8 9 10 11 12 13 14
000
FTUS45 KRIW 010500
TAFCPR
TAF
KCPR 010524Z 0106/0206 21008KT P6SM BKN200
     FM011500 21015G25KT P6SM FEW140 BKN200
     FM012000 21020G30KT P6SM SCT100 BKN150
     FM020200 22015KT P6SM SCT100 BKN150=

USA.gov is the U.S. government's official web portal to all federal, state and local government web resources and services.